Time;durP1;ratioP1;P1;durP2;ratioP2;P2;SDS_P1;SDS_P2;PMS_P1;PMS_P2;Temp;Humidity;BMP_temperature;BMP_pressure;BME280_temperature;BME280_humidity;BME280_pressure;Samples;Min_cycle;Max_cycle;Signal;HPM_P1;HPM_P2
2022/01/25 03:03:06;;;;;;;77.80;39.63;;;;;;;-145.18;100.00;46640.88;5311245;23;20365;-75
2022/01/25 03:05:32;;;;;;;81.80;40.90;;;;;;;-145.18;100.00;46638.91;4911905;29;20381;-75
2022/01/25 03:07:58;;;;;;;86.57;41.53;;;;;;;-145.18;100.00;46638.91;4928109;29;20130;-75
2022/01/25 03:10:32;;;;;;;85.87;43.10;;;;;;;-145.18;100.00;46646.72;4929760;29;20079;-73
2022/01/25 03:12:57;;;;;;;81.03;41.20;;;;;;;-145.18;100.00;46636.94;4928884;29;20044;-73
2022/01/25 03:15:30;;;;;;;79.90;41.20;;;;;;;-145.18;100.00;46644.78;4928959;29;20428;-74
2022/01/25 03:18:00;;;;;;;84.57;42.93;;;;;;;-145.18;100.00;46638.91;4929296;29;20048;-73
2022/01/25 03:20:48;;;;;;;74.43;37.77;;;;;;;-145.18;100.00;46636.94;4929754;29;20310;-73
2022/01/25 03:23:18;;;;;;;76.20;39.30;;;;;;;-145.18;100.00;46636.94;4928828;29;20755;-73
2022/01/25 03:25:43;;;;;;;79.33;39.77;;;;;;;-145.18;100.00;46631.09;4929765;29;20286;-73
2022/01/25 03:28:09;;;;;;;80.77;41.80;;;;;;;-145.18;100.00;46638.91;4929021;29;20289;-73
2022/01/25 03:30:34;;;;;;;90.93;44.80;;;;;;;-145.18;100.00;46644.78;4929813;29;20690;-74
2022/01/25 03:33:00;;;;;;;87.67;44.90;;;;;;;-145.18;100.00;46648.69;4929067;29;20122;-74
2022/01/25 03:35:25;;;;;;;84.90;41.93;;;;;;;-145.18;100.00;46644.78;4930162;29;20047;-73
2022/01/25 03:37:51;;;;;;;86.20;43.10;;;;;;;-145.18;100.00;46642.81;4929362;29;20043;-74
2022/01/25 03:40:18;;;;;;;79.63;41.33;;;;;;;-145.18;100.00;46650.63;4928394;29;20051;-73
2022/01/25 03:42:44;;;;;;;74.07;38.63;;;;;;;-145.18;100.00;46644.78;4929562;29;20477;-73
2022/01/25 03:45:17;;;;;;;74.20;37.90;;;;;;;-145.18;100.00;46636.94;4929330;29;20789;-74
2022/01/25 03:50:28;;;;;;;74.53;38.38;;;;;;;-145.18;100.00;46648.69;4890258;29;20333;-74
2022/01/25 03:52:54;;;;;;;72.53;37.23;;;;;;;-145.18;100.00;46648.69;4929211;29;20126;-74
2022/01/25 03:55:19;;;;;;;74.37;37.07;;;;;;;-145.18;100.00;46646.72;4929601;29;20039;-74
2022/01/25 03:57:45;;;;;;;67.07;34.30;;;;;;;-145.18;100.00;46652.59;4929369;29;20048;-74
2022/01/25 04:00:11;;;;;;;71.57;35.67;;;;;;;-145.18;100.00;46650.63;4930309;29;20046;-74
2022/01/25 04:02:45;;;;;;;73.50;34.73;;;;;;;-145.18;100.00;46652.59;4933158;29;20067;-73
2022/01/25 04:05:19;;;;;;;79.87;38.10;;;;;;;-145.18;100.00;46654.53;4933216;29;20298;-74
2022/01/25 04:07:50;;;;;;;70.63;36.03;;;;;;;-145.18;100.00;46652.59;4925809;29;20279;-74
2022/01/25 04:10:17;;;;;;;75.50;38.77;;;;;;;-145.18;100.00;46635.00;4931624;29;20365;-74
2022/01/25 04:12:43;;;;;;;70.27;36.27;;;;;;;-145.18;100.00;46646.72;4932629;29;20987;-74
2022/01/25 04:15:10;;;;;;;70.90;36.70;;;;;;;-145.18;100.00;46648.69;4930716;29;20373;-74
2022/01/25 04:17:35;;;;;;;76.27;38.57;;;;;;;-145.18;100.00;46636.94;4915507;29;20492;-74
2022/01/25 04:20:18;;;;;;;73.87;38.30;;;;;;;-145.18;100.00;46646.72;4932587;29;20310;-73
2022/01/25 04:25:28;;;;;;;74.90;37.93;;;;;;;-145.18;100.00;46638.91;4932523;29;20313;-73
2022/01/25 04:27:53;;;;;;;70.67;35.50;;;;;;;-145.18;100.00;46638.91;4932323;29;20311;-73
2022/01/25 04:30:19;;;;;;;65.87;34.33;;;;;;;-145.18;100.00;46644.78;4932466;29;20044;-73
2022/01/25 04:49:06;;;;;;;79.43;38.70;;;;;;;-145.18;100.00;46640.88;4931565;29;20289;-73
2022/01/25 04:59:39;;;;;;;76.40;38.88;;;;;;;-145.18;100.00;46635.00;4901897;29;20277;-73
2022/01/25 05:02:11;;;;;;;72.97;36.93;;;;;;;-145.18;100.00;46633.06;4931691;29;20047;-73
2022/01/25 05:04:45;;;;;;;74.30;37.73;;;;;;;-145.18;100.00;46636.94;4931884;29;20283;-73
2022/01/25 05:07:27;;;;;;;73.47;38.87;;;;;;;-145.18;100.00;46633.06;4931607;29;20285;-73
2022/01/25 05:09:53;;;;;;;74.37;36.23;;;;;;;-145.18;100.00;46633.06;4925966;29;20255;-73
2022/01/25 05:12:31;;;;;;;77.53;37.53;;;;;;;-145.18;100.00;46633.06;4930373;29;20322;-73
2022/01/25 05:15:01;;;;;;;76.83;36.93;;;;;;;-145.18;100.00;46642.81;4930335;29;20754;-74
2022/01/25 05:17:42;;;;;;;71.73;37.57;;;;;;;-145.18;100.00;46636.94;4930002;29;20274;-73
2022/01/25 05:22:52;;;;;;;82.17;42.07;;;;;;;-145.18;100.00;46644.78;4931337;29;20278;-73
2022/01/25 05:25:17;;;;;;;83.13;42.73;;;;;;;-145.18;100.00;46636.94;4930247;29;20361;-73
2022/01/25 05:27:43;;;;;;;83.63;43.03;;;;;;;-145.18;100.00;46640.88;4931124;29;20044;-73
2022/01/25 05:30:09;;;;;;;78.50;39.13;;;;;;;-145.18;100.00;46638.91;4931011;29;20060;-73
2022/01/25 05:32:34;;;;;;;75.83;38.43;;;;;;;-145.18;100.00;46648.69;4931148;29;20850;-74
2022/01/25 05:35:01;;;;;;;77.37;39.80;;;;;;;-145.18;100.00;46642.81;4931521;29;20405;-73
2022/01/25 05:37:27;;;;;;;79.60;39.73;;;;;;;-145.18;100.00;46633.06;4931213;29;20058;-73
2022/01/25 05:39:53;;;;;;;72.33;36.77;;;;;;;-145.18;100.00;46640.88;4930948;29;21084;-73
2022/01/25 05:47:19;;;;;;;78.77;36.83;;;;;;;-145.18;100.00;46636.94;4931009;29;20040;-73
2022/01/25 05:49:45;;;;;;;80.30;39.43;;;;;;;-145.18;100.00;46644.78;4930680;29;20285;-74
2022/01/25 05:52:11;;;;;;;79.60;40.33;;;;;;;-145.18;100.00;46642.81;4930791;29;20305;-74
2022/01/25 05:54:38;;;;;;;77.37;37.70;;;;;;;-145.18;100.00;46646.72;4930756;29;20266;-75
2022/01/25 05:57:04;;;;;;;78.27;40.23;;;;;;;-145.18;100.00;46646.72;4931221;29;20277;-74
2022/01/25 05:59:29;;;;;;;82.60;40.90;;;;;;;-145.18;100.00;46658.44;4930468;29;20281;-74
2022/01/25 06:01:55;;;;;;;80.33;39.97;;;;;;;-145.18;100.00;46660.41;4929857;29;20036;-74
2022/01/25 06:04:22;;;;;;;73.53;38.40;;;;;;;-145.18;100.00;46646.72;4893598;29;20063;-73
2022/01/25 06:06:47;;;;;;;69.63;35.90;;;;;;;-145.18;100.00;46646.72;4897562;29;20040;-73
2022/01/25 06:09:13;;;;;;;68.23;35.87;;;;;;;-145.18;100.00;46658.44;4892192;29;20279;-73
2022/01/25 06:11:38;;;;;;;68.30;35.13;;;;;;;-145.18;100.00;46652.59;4893454;29;20048;-73
2022/01/25 06:14:04;;;;;;;72.10;36.43;;;;;;;-145.18;100.00;46652.59;4891956;29;20163;-74
2022/01/25 06:16:30;;;;;;;81.37;39.27;;;;;;;-145.18;100.00;46652.59;4891159;29;20124;-74
2022/01/25 06:18:56;;;;;;;80.50;41.10;;;;;;;-145.18;100.00;46644.78;4891954;29;20284;-74
2022/01/25 06:21:22;;;;;;;91.23;43.50;;;;;;;-145.18;100.00;46654.53;4904844;29;20036;-73
2022/01/25 06:23:48;;;;;;;82.97;41.13;;;;;;;-145.18;100.00;46648.69;4929827;29;20368;-74
2022/01/25 06:26:14;;;;;;;80.13;38.93;;;;;;;-145.18;100.00;46656.50;4930341;29;20281;-74
2022/01/25 06:28:39;;;;;;;87.83;42.23;;;;;;;-145.18;100.00;46660.41;4930281;29;20274;-73
2022/01/25 06:31:05;;;;;;;86.73;41.80;;;;;;;-145.18;100.00;46650.63;4930796;29;20519;-73
2022/01/25 06:33:30;;;;;;;81.53;39.73;;;;;;;-145.18;100.00;46638.91;4930277;29;20094;-73
2022/01/25 06:35:56;;;;;;;80.37;38.53;;;;;;;-145.18;100.00;46654.53;4930426;29;20126;-73
2022/01/25 06:38:22;;;;;;;80.10;39.37;;;;;;;-145.18;100.00;46648.69;4913430;29;20074;-73
2022/01/25 06:40:47;;;;;;;75.87;39.20;;;;;;;-145.18;100.00;46650.63;4931299;29;20090;-73
2022/01/25 06:43:13;;;;;;;85.27;41.47;;;;;;;-145.18;100.00;46656.50;4930014;29;20090;-73
2022/01/25 06:45:40;;;;;;;80.60;40.43;;;;;;;-145.18;100.00;46650.63;4930634;29;20098;-73
2022/01/25 06:48:06;;;;;;;83.53;40.17;;;;;;;-145.18;100.00;46656.50;4930041;29;20123;-73
2022/01/25 06:50:33;;;;;;;84.07;39.90;;;;;;;-145.18;100.00;46666.25;4905386;29;20730;-73
2022/01/25 06:52:58;;;;;;;86.40;42.40;;;;;;;-145.18;100.00;46670.16;4890539;29;20263;-73
2022/01/25 06:55:23;;;;;;;83.17;42.33;;;;;;;-145.18;100.00;46664.31;4892484;29;20661;-73
2022/01/25 06:57:49;;;;;;;81.47;39.97;;;;;;;-145.18;100.00;46677.97;4892590;29;20060;-73
2022/01/25 07:00:19;;;;;;;73.67;36.80;;;;;;;-145.18;100.00;46674.06;4892537;29;20047;-73
2022/01/25 07:02:45;;;;;;;81.23;38.83;;;;;;;-145.18;100.00;46676.03;4899152;29;20413;-74
2022/01/25 07:05:11;;;;;;;91.73;43.80;;;;;;;-145.18;100.00;46695.56;4913703;29;20274;-73
2022/01/25 07:07:38;;;;;;;90.30;41.20;;;;;;;-145.18;100.00;46693.59;4910627;29;20036;-73
2022/01/25 07:10:05;;;;;;;90.63;43.33;;;;;;;-145.18;100.00;46711.19;4911010;29;20107;-73
2022/01/25 07:12:30;;;;;;;89.87;42.23;;;;;;;-145.18;100.00;46711.19;4911346;29;20826;-73
2022/01/25 07:14:55;;;;;;;86.30;41.40;;;;;;;-145.18;100.00;46715.09;4909680;29;20346;-73
2022/01/25 07:17:21;;;;;;;88.27;43.43;;;;;;;-145.18;100.00;46715.09;4910875;29;20040;-73
2022/01/25 07:19:48;;;;;;;83.63;40.73;;;;;;;-145.18;100.00;46722.91;4910843;29;20139;-73
2022/01/25 07:22:13;;;;;;;87.70;41.63;;;;;;;-145.18;100.00;46717.03;4910784;29;20036;-74
2022/01/25 07:24:39;;;;;;;95.57;44.17;;;;;;;-145.18;100.00;46724.84;4910252;29;20893;-73
2022/01/25 07:27:05;;;;;;;90.57;42.07;;;;;;;-145.18;100.00;46773.69;4910593;29;20462;-73
2022/01/25 07:29:30;;;;;;;90.13;41.90;;;;;;;-145.18;100.00;46812.75;4911404;29;20068;-73
2022/01/25 07:31:56;;;;;;;91.90;44.90;;;;;;;-145.18;100.00;46808.84;4911213;29;20067;-73
2022/01/25 07:34:22;;;;;;;93.37;44.33;;;;;;;-145.18;100.00;46814.72;4910224;29;20051;-73
2022/01/25 07:36:47;;;;;;;88.07;43.03;;;;;;;-145.18;100.00;46844.00;4914341;29;20051;-73
2022/01/25 07:39:12;;;;;;;88.17;42.50;;;;;;;-145.18;100.00;46842.06;4914088;29;20530;-74
2022/01/25 07:41:38;;;;;;;89.47;42.93;;;;;;;-145.18;100.00;46861.59;4914848;29;20044;-74
2022/01/25 07:44:05;;;;;;;88.77;42.33;;;;;;;-145.18;100.00;46898.72;4910553;29;20188;-73
2022/01/25 07:46:32;;;;;;;87.97;41.97;;;;;;;-145.18;100.00;46906.53;4913429;29;20088;-73
2022/01/25 07:48:57;;;;;;;89.87;43.97;;;;;;;-145.18;100.00;46902.63;4914158;29;20279;-73
2022/01/25 07:51:26;;;;;;;87.30;40.67;;;;;;;-145.18;100.00;46890.91;4930635;29;20794;-73
2022/01/25 07:53:52;;;;;;;86.13;41.40;;;;;;;-145.18;100.00;46902.63;4918994;29;20048;-74
2022/01/25 07:56:17;;;;;;;86.20;41.07;;;;;;;-145.18;100.00;46890.91;4919916;29;20297;-73
2022/01/25 07:58:43;;;;;;;95.90;45.40;;;;;;;-145.18;100.00;46875.28;4913397;29;20278;-73
2022/01/25 08:01:08;;;;;;;101.33;47.20;;;;;;;-145.18;100.00;46875.28;4933349;29;20390;-73
2022/01/25 08:03:34;;;;;;;101.70;48.23;;;;;;;-145.18;100.00;46949.50;4924541;29;20055;-73
2022/01/25 08:05:59;;;;;;;86.57;41.20;;;;;;;-145.18;100.00;46994.44;4897115;29;20052;-73
2022/01/25 08:08:25;;;;;;;79.83;40.07;;;;;;;-145.18;100.00;46961.22;4912815;29;20036;-73
2022/01/25 08:10:50;;;;;;;84.87;38.90;;;;;;;-145.18;100.00;46957.31;4913812;29;20099;-73
2022/01/25 08:13:16;;;;;;;84.97;39.23;;;;;;;-145.18;100.00;46929.97;4896262;29;20036;-73
2022/01/25 08:15:41;;;;;;;92.47;40.13;;;;;;;-145.18;100.00;46916.28;4914461;29;20043;-73
2022/01/25 08:18:07;;;;;;;93.63;41.87;;;;;;;-145.18;100.00;46890.91;4895856;29;20043;-73
2022/01/25 08:20:33;;;;;;;92.27;42.97;;;;;;;-145.18;100.00;46894.81;4913651;29;20052;-73
2022/01/25 08:22:59;;;;;;;95.67;43.43;;;;;;;-145.18;100.00;46863.53;4912863;29;20342;-73
2022/01/25 08:25:24;;;;;;;92.93;42.50;;;;;;;-145.18;100.00;46857.69;4913482;29;20024;-74
2022/01/25 08:27:50;;;;;;;99.77;44.93;;;;;;;-145.18;100.00;46840.09;4896016;29;20060;-74
2022/01/25 08:30:15;;;;;;;95.17;44.50;;;;;;;-145.18;100.00;46853.78;4917012;29;20045;-74
2022/01/25 08:32:42;;;;;;;98.03;45.10;;;;;;;-145.18;100.00;46847.91;4931480;29;20111;-73
2022/01/25 08:35:08;;;;;;;101.47;45.07;;;;;;;-145.18;100.00;46844.00;4930906;29;20043;-74
2022/01/25 08:37:34;;;;;;;98.03;45.40;;;;;;;-145.18;100.00;46840.09;4922205;29;20275;-73
2022/01/25 08:40:01;;;;;;;102.03;47.43;;;;;;;-145.18;100.00;46863.53;4925063;29;20293;-73
2022/01/25 08:42:27;;;;;;;108.90;48.63;;;;;;;-145.18;100.00;46851.81;4931599;29;20042;-73
2022/01/25 08:44:52;;;;;;;102.00;45.30;;;;;;;-145.18;100.00;46851.81;4931061;29;20286;-74
2022/01/25 08:47:18;;;;;;;100.90;48.37;;;;;;;-145.18;100.00;46865.50;4930867;29;20496;-74
2022/01/25 08:49:43;;;;;;;101.47;46.67;;;;;;;-145.18;100.00;46883.09;4926173;29;20055;-73
2022/01/25 08:52:08;;;;;;;101.23;46.97;;;;;;;-145.18;100.00;46906.53;4911210;29;20048;-73
2022/01/25 08:54:34;;;;;;;99.97;46.63;;;;;;;-145.18;100.00;46916.28;4928247;29;20052;-74
2022/01/25 08:57:00;;;;;;;104.67;48.50;;;;;;;-145.18;100.00;46918.25;4914805;29;20610;-73
2022/01/25 08:59:26;;;;;;;103.00;48.23;;;;;;;-145.18;100.00;46943.63;4931178;29;20042;-74
2022/01/25 09:01:51;;;;;;;101.27;47.43;;;;;;;-145.18;100.00;46929.97;4931790;29;20634;-73
2022/01/25 09:04:17;;;;;;;96.60;44.93;;;;;;;-145.18;100.00;46900.66;4944157;29;20050;-73
2022/01/25 09:06:42;;;;;;;101.33;48.67;;;;;;;-145.18;100.00;46941.69;4942796;29;20127;-73
2022/01/25 09:09:09;;;;;;;99.00;46.37;;;;;;;-145.18;100.00;46933.88;4925679;29;20485;-73
2022/01/25 09:11:36;;;;;;;103.30;45.77;;;;;;;-145.18;100.00;46941.69;4950484;29;20040;-74
2022/01/25 09:14:03;;;;;;;100.10;46.20;;;;;;;-145.18;100.00;46937.78;4935050;29;20799;-73
2022/01/25 09:16:28;;;;;;;101.80;47.97;;;;;;;-145.18;100.00;46926.06;4946416;29;20270;-73
2022/01/25 09:18:54;;;;;;;95.90;44.60;;;;;;;-145.18;100.00;46953.41;4950104;29;20364;-74
2022/01/25 09:21:19;;;;;;;107.13;47.60;;;;;;;-145.18;100.00;46976.84;4949882;29;20066;-73
2022/01/25 09:23:45;;;;;;;104.77;48.53;;;;;;;-145.18;100.00;47015.91;4949749;29;20185;-74
2022/01/25 09:26:11;;;;;;;99.83;45.90;;;;;;;-145.18;100.00;46953.41;4950087;29;20103;-73
2022/01/25 09:28:36;;;;;;;103.07;49.10;;;;;;;-145.18;100.00;46945.59;4949677;29;20126;-74
2022/01/25 09:31:02;;;;;;;105.70;48.30;;;;;;;-145.18;100.00;46926.06;4949543;29;20451;-74
2022/01/25 09:33:28;;;;;;;103.83;49.97;;;;;;;-145.18;100.00;46928.00;4938972;29;20070;-73
2022/01/25 09:35:55;;;;;;;108.23;49.80;;;;;;;-145.18;100.00;46935.81;4949656;29;20304;-73
2022/01/25 09:38:21;;;;;;;109.17;51.57;;;;;;;-145.18;100.00;46972.94;4949422;29;20047;-74
2022/01/25 09:40:47;;;;;;;105.90;47.87;;;;;;;-145.18;100.00;47015.91;4929788;29;21151;-74
2022/01/25 09:43:14;;;;;;;107.47;49.37;;;;;;;-145.18;100.00;47029.59;4915911;29;20413;-73
2022/01/25 09:45:40;;;;;;;107.07;49.87;;;;;;;-145.18;100.00;47080.38;4932325;29;20095;-75
2022/01/25 09:48:07;;;;;;;107.97;50.63;;;;;;;-145.18;100.00;47117.50;4942825;29;20278;-74
2022/01/25 09:50:33;;;;;;;108.40;49.73;;;;;;;-145.18;100.00;47223.00;4947373;29;20290;-74
2022/01/25 09:53:02;;;;;;;112.23;52.20;;;;;;;-145.18;100.00;47301.16;4945546;29;21366;-73
2022/01/25 09:55:32;;;;;;;108.13;49.30;;;;;;;-145.18;100.00;47262.06;4929866;29;20293;-73
2022/01/25 09:57:57;;;;;;;105.07;48.97;;;;;;;-145.18;100.00;47348.03;4942494;28;20276;-73
2022/01/25 10:00:26;;;;;;;100.20;47.07;;;;;;;-145.18;100.00;47428.13;4915709;29;20302;-73
2022/01/25 10:03:13;;;;;;;103.47;48.43;;;;;;;-145.18;100.00;47594.19;4930096;29;20127;-73
2022/01/25 10:05:42;;;;;;;107.93;48.57;;;;;;;-145.18;100.00;47639.13;4945791;29;20262;-73
2022/01/25 10:08:26;;;;;;;106.97;48.43;;;;;;;-145.18;100.00;47660.63;4940661;29;20365;-73
2022/01/25 10:11:08;;;;;;;107.33;49.60;;;;;;;-145.18;100.00;47654.78;4933207;29;20316;-73
2022/01/25 10:13:39;;;;;;;106.90;48.47;;;;;;;-145.18;100.00;47652.81;4939473;29;20324;-73
2022/01/25 10:16:08;;;;;;;112.90;52.33;;;;;;;-145.18;100.00;47641.09;4943861;29;20265;-73
2022/01/25 10:18:46;;;;;;;112.83;50.10;;;;;;;-145.18;100.00;47660.63;4931551;29;20661;-73
2022/01/25 10:21:31;;;;;;;109.93;51.20;;;;;;;-145.18;100.00;47625.47;4949299;29;20278;-73
2022/01/25 10:24:06;;;;;;;112.07;49.30;;;;;;;-145.18;100.00;47613.75;4948902;29;20442;-73
2022/01/25 10:26:36;;;;;;;115.03;52.25;;;;;;;-145.18;100.00;47656.72;4949211;29;20635;-74
2022/01/25 10:29:03;;;;;;;119.47;52.37;;;;;;;-145.18;100.00;47605.94;4948839;29;20035;-73
2022/01/25 10:31:34;;;;;;;107.60;48.37;;;;;;;-145.18;100.00;47590.28;4949235;29;20278;-73
2022/01/25 10:34:00;;;;;;;109.70;49.67;;;;;;;-145.18;100.00;47607.88;4947253;29;20269;-73
2022/01/25 10:36:25;;;;;;;108.63;49.67;;;;;;;-145.18;100.00;47617.66;4948879;29;20281;-73
2022/01/25 10:38:54;;;;;;;109.77;50.50;;;;;;;-145.18;100.00;47615.69;4947308;28;20741;-73
2022/01/25 10:41:24;;;;;;;113.47;51.77;;;;;;;-145.18;100.00;47639.13;4948725;29;20360;-74
2022/01/25 10:43:52;;;;;;;105.20;48.50;;;;;;;-145.18;100.00;47584.44;4948371;29;20317;-73
2022/01/25 10:46:25;;;;;;;110.70;50.97;;;;;;;-145.18;100.00;47625.47;4945120;29;20282;-73
2022/01/25 10:49:06;;;;;;;106.63;49.07;;;;;;;-145.18;100.00;47660.63;4945263;29;20282;-74
2022/01/25 10:51:58;;;;;;;107.67;51.33;;;;;;;-145.18;100.00;47686.03;4943902;29;20321;-73
2022/01/25 10:54:24;;;;;;;108.67;47.77;;;;;;;-145.18;100.00;47660.63;4943016;29;20614;-73
2022/01/25 10:56:53;;;;;;;111.10;49.10;;;;;;;-145.18;100.00;47672.34;4948431;29;20274;-73
2022/01/25 10:59:39;;;;;;;117.70;50.73;;;;;;;-145.18;100.00;47652.81;4948003;29;20122;-73
2022/01/25 11:02:06;;;;;;;113.63;50.10;;;;;;;-145.18;100.00;47672.34;4930622;29;20281;-73
2022/01/25 11:04:35;;;;;;;106.67;49.37;;;;;;;-145.18;100.00;47662.59;4938102;29;20047;-73
2022/01/25 11:07:08;;;;;;;114.30;50.90;;;;;;;-145.18;100.00;47656.72;4928699;29;20373;-73
2022/01/25 11:09:42;;;;;;;111.37;50.20;;;;;;;-145.18;100.00;47660.63;4924513;29;20902;-73
2022/01/25 11:12:17;;;;;;;108.07;50.17;;;;;;;-145.18;100.00;47645.00;4924085;29;20313;-73
2022/01/25 11:14:50;;;;;;;114.38;49.90;;;;;;;-145.18;100.00;47664.53;4928600;29;20278;-73
2022/01/25 11:17:29;;;;;;;110.07;48.80;;;;;;;-145.18;100.00;47664.53;4929414;29;20044;-73
2022/01/25 11:19:57;;;;;;;101.43;47.23;;;;;;;-145.18;100.00;47672.34;4928611;29;20312;-73
2022/01/25 11:22:23;;;;;;;108.20;49.73;;;;;;;-145.18;100.00;47682.13;4928803;29;20280;-73
2022/01/25 11:24:51;;;;;;;106.87;49.60;;;;;;;-145.18;100.00;47668.44;4911402;29;20274;-74
2022/01/25 11:27:18;;;;;;;108.17;48.10;;;;;;;-145.18;100.00;47654.78;4928319;29;20286;-74
2022/01/25 11:29:45;;;;;;;106.23;49.03;;;;;;;-145.18;100.00;47656.72;4923460;29;20648;-73
2022/01/25 11:32:17;;;;;;;111.20;49.57;;;;;;;-145.18;100.00;47635.22;4927351;29;20274;-73
2022/01/25 11:34:45;;;;;;;107.30;49.73;;;;;;;-145.18;100.00;47666.50;4913394;29;20313;-74
2022/01/25 11:37:10;;;;;;;108.80;49.50;;;;;;;-145.18;100.00;47641.09;4918689;29;20688;-74
2022/01/25 11:39:41;;;;;;;99.80;46.73;;;;;;;-145.18;100.00;47658.69;4909519;29;20330;-74
2022/01/25 11:42:14;;;;;;;107.60;47.60;;;;;;;-145.18;100.00;47635.22;4923667;29;20123;-74
2022/01/25 11:44:57;;;;;;;102.80;47.87;;;;;;;-145.18;100.00;47629.38;4911210;29;20856;-74
2022/01/25 11:47:31;;;;;;;105.17;48.03;;;;;;;-145.18;100.00;47617.66;4927166;29;20373;-73
2022/01/25 11:50:00;;;;;;;115.60;48.57;;;;;;;-145.18;100.00;47633.28;4921958;29;20639;-73
2022/01/25 11:52:27;;;;;;;108.83;50.27;;;;;;;-145.18;100.00;47641.09;4928558;29;20791;-74
2022/01/25 11:55:13;;;;;;;101.67;46.40;;;;;;;-145.18;100.00;47629.38;4928547;29;20290;-73
2022/01/25 11:57:57;;;;;;;107.40;49.93;;;;;;;-145.18;100.00;47605.94;4928525;29;20263;-73
2022/01/25 12:00:40;;;;;;;98.23;46.00;;;;;;;-145.18;100.00;47609.84;4915510;29;20279;-73
2022/01/25 12:03:44;;;;;;;103.67;47.83;;;;;;;-145.18;100.00;47625.47;4928478;29;20344;-73
2022/01/25 12:06:19;;;;;;;105.10;47.67;;;;;;;-145.18;100.00;47643.03;4875122;29;21021;-73
2022/01/25 12:11:58;;;;;;;107.73;48.43;;;;;;;-145.18;100.00;47617.66;4929019;29;20036;-73
2022/01/25 12:14:31;;;;;;;103.03;46.40;;;;;;;-145.18;100.00;47611.78;4928166;29;20357;-73
2022/01/25 12:17:02;;;;;;;101.47;46.97;;;;;;;-145.18;100.00;47613.75;4911905;29;20357;-73
2022/01/25 12:19:30;;;;;;;104.60;46.80;;;;;;;-145.18;100.00;47625.47;4928193;29;20267;-73
2022/01/25 12:22:04;;;;;;;99.87;46.27;;;;;;;-145.18;100.00;47609.84;4930923;29;20312;-73
2022/01/25 12:24:51;;;;;;;104.67;47.97;;;;;;;-145.18;100.00;47613.75;4931284;29;20274;-74
2022/01/25 12:27:24;;;;;;;105.60;48.30;;;;;;;-145.18;100.00;47625.47;4931880;29;20650;-73
2022/01/25 12:30:12;;;;;;;101.83;46.77;;;;;;;-145.18;100.00;47648.91;4931631;29;20266;-73
2022/01/25 12:33:08;;;;;;;109.60;49.03;;;;;;;-145.18;100.00;47656.72;4932059;29;20258;-73
2022/01/25 12:36:07;;;;;;;105.33;45.80;;;;;;;-145.18;100.00;47643.03;4931497;29;20298;-73
2022/01/25 12:38:38;;;;;;;105.40;47.37;;;;;;;-145.18;100.00;47648.91;4931413;29;20286;-73
2022/01/25 12:41:31;;;;;;;99.23;46.13;;;;;;;-145.18;100.00;47646.97;4931502;29;20631;-74
2022/01/25 12:43:59;;;;;;;108.30;47.50;;;;;;;-145.18;100.00;47643.03;4906741;29;20278;-73
2022/01/25 12:46:32;;;;;;;102.80;46.43;;;;;;;-145.18;100.00;47631.31;4931635;29;20293;-73
2022/01/25 12:49:00;;;;;;;95.20;45.27;;;;;;;-145.18;100.00;47637.19;4930913;29;20282;-73
2022/01/25 12:51:31;;;;;;;95.13;45.10;;;;;;;-145.18;100.00;47635.22;4931465;29;20349;-73
2022/01/25 12:54:04;;;;;;;102.33;45.20;;;;;;;-145.18;100.00;47639.13;4930985;29;20310;-73
2022/01/25 12:56:44;;;;;;;106.83;48.03;;;;;;;-145.18;100.00;47652.81;4913843;29;20265;-73
2022/01/25 12:59:13;;;;;;;109.73;47.30;;;;;;;-145.18;100.00;47650.88;4918364;29;20282;-73
2022/01/25 13:01:41;;;;;;;103.87;45.50;;;;;;;-145.18;100.00;47652.81;4930979;29;20270;-73
2022/01/25 13:04:09;;;;;;;103.07;47.43;;;;;;;-145.18;100.00;47664.53;4936921;29;22554;-73
2022/01/25 13:06:38;;;;;;;102.50;46.70;;;;;;;-145.18;100.00;47613.75;4950036;29;20341;-73
2022/01/25 13:11:42;;;;;;;98.93;43.17;;;;;;;-145.18;100.00;47607.88;4950018;29;20309;-73
2022/01/25 13:17:18;;;;;;;105.50;47.20;;;;;;;-145.18;100.00;47645.00;4868818;29;20293;-73
2022/01/25 13:19:50;;;;;;;100.80;45.10;;;;;;;-145.18;100.00;47664.53;4936860;29;20759;-73
2022/01/25 13:22:27;;;;;;;101.90;47.20;;;;;;;-145.18;100.00;47656.72;4950045;29;20277;-73
2022/01/25 13:27:45;;;;;;;102.27;46.03;;;;;;;-145.18;100.00;47652.81;4940531;29;20274;-73
2022/01/25 13:32:55;;;;;;;100.47;46.13;;;;;;;-145.18;100.00;47645.00;4949412;28;20317;-73
2022/01/25 13:35:26;;;;;;;97.20;44.47;;;;;;;-145.18;100.00;47648.91;4949020;29;20282;-73
2022/01/25 13:38:17;;;;;;;101.67;45.53;;;;;;;-145.18;100.00;47662.59;4949630;29;20123;-73
2022/01/25 13:46:19;;;;;;;105.43;45.87;;;;;;;-145.18;100.00;47680.16;4949232;29;20277;-73
2022/01/25 13:48:46;;;;;;;105.53;45.57;;;;;;;-145.18;100.00;47684.06;4948993;29;20282;-73
2022/01/25 13:51:17;;;;;;;99.87;44.60;;;;;;;-145.18;100.00;47674.31;4949028;29;20871;-73
2022/01/25 13:53:48;;;;;;;103.10;47.03;;;;;;;-145.18;100.00;47668.44;4949481;29;20278;-73
2022/01/25 13:56:15;;;;;;;106.07;46.87;;;;;;;-145.18;100.00;47648.91;4948618;29;20280;-73
2022/01/25 13:58:45;;;;;;;113.37;47.33;;;;;;;-145.18;100.00;47645.00;4948924;29;20344;-73
2022/01/25 14:01:13;;;;;;;107.03;46.10;;;;;;;-145.18;100.00;47656.72;4946490;29;20320;-73
2022/01/25 14:04:03;;;;;;;101.37;44.67;;;;;;;-145.18;100.00;47654.78;4939574;29;20353;-73
2022/01/25 14:06:40;;;;;;;99.57;44.30;;;;;;;-145.18;100.00;47654.78;4949261;29;20280;-73
2022/01/25 14:09:08;;;;;;;101.47;43.83;;;;;;;-145.18;100.00;47639.13;4948946;29;20324;-73
2022/01/25 14:22:43;;;;;;;97.50;40.90;;;;;;;-145.18;100.00;47594.19;4930389;29;20103;-73
2022/01/25 14:25:09;;;;;;;94.73;42.73;;;;;;;-145.18;100.00;47617.66;4925631;29;20349;-73
2022/01/25 14:27:51;;;;;;;97.00;42.27;;;;;;;-145.18;100.00;47611.78;4948682;29;20719;-73
2022/01/25 14:30:18;;;;;;;97.10;43.40;;;;;;;-145.18;100.00;47605.94;4942649;29;20146;-73
2022/01/25 14:32:43;;;;;;;104.33;44.40;;;;;;;-145.18;100.00;47615.69;4947950;29;20323;-73
2022/01/25 14:35:12;;;;;;;101.37;45.80;;;;;;;-145.18;100.00;47611.78;4929029;29;20293;-73
2022/01/25 14:37:47;;;;;;;104.23;44.20;;;;;;;-145.18;100.00;47607.88;4930955;29;20083;-73
2022/01/25 14:40:14;;;;;;;101.68;44.28;;;;;;;-145.18;100.00;47625.47;4942499;29;20365;-73
2022/01/25 14:42:41;;;;;;;94.63;42.17;;;;;;;-145.18;100.00;47586.38;4932317;29;20103;-73
2022/01/25 14:45:19;;;;;;;90.73;40.87;;;;;;;-145.18;100.00;47617.66;4947591;28;20316;-73
2022/01/25 14:47:46;;;;;;;87.87;38.63;;;;;;;-145.18;100.00;47598.09;4948806;29;20297;-73
2022/01/25 14:50:24;;;;;;;91.20;40.60;;;;;;;-145.18;100.00;47633.28;4937062;29;20278;-73
2022/01/25 14:53:03;;;;;;;90.63;40.30;;;;;;;-145.18;100.00;47605.94;4922146;29;20348;-73
2022/01/25 14:55:30;;;;;;;95.10;41.80;;;;;;;-145.18;100.00;47635.22;4935700;29;20277;-73
2022/01/25 14:58:22;;;;;;;101.30;41.50;;;;;;;-145.18;100.00;47617.66;4948644;29;20312;-73
2022/01/25 15:00:51;;;;;;;96.87;40.67;;;;;;;-145.18;100.00;47629.38;4947244;29;20276;-73
2022/01/25 15:03:17;;;;;;;92.97;41.40;;;;;;;-145.18;100.00;47645.00;4947912;29;20281;-73
2022/01/25 15:05:45;;;;;;;95.33;41.20;;;;;;;-145.18;100.00;47645.00;4948366;29;20662;-73
2022/01/25 15:08:11;;;;;;;97.03;38.47;;;;;;;-145.18;100.00;47658.69;4947970;29;20282;-73
2022/01/25 15:10:43;;;;;;;101.37;42.60;;;;;;;-145.18;100.00;47639.13;4947980;29;20301;-73